sensor_id;sensor_type;location;lat;lon;timestamp;pressure;altitude;pressure_sealevel;temperature;humidity
63970;BME280;50156;37.772;-122.432;2022-12-07T00:01:45;101010.46;;;14.71;100.00
63970;BME280;50156;37.772;-122.432;2022-12-07T00:04:16;101013.91;;;14.47;100.00
63970;BME280;50156;37.772;-122.432;2022-12-07T00:06:50;101016.81;;;14.21;100.00
63970;BME280;50156;37.772;-122.432;2022-12-07T00:09:19;101015.46;;;14.27;100.00
63970;BME280;50156;37.772;-122.432;2022-12-07T00:11:50;101010.84;;;13.88;100.00
63970;BME280;50156;37.772;-122.432;2022-12-07T00:14:20;100999.19;;;13.88;100.00
63970;BME280;50156;37.772;-122.432;2022-12-07T00:16:50;100998.59;;;13.62;100.00
63970;BME280;50156;37.772;-122.432;2022-12-07T00:19:19;100994.57;;;13.53;100.00
63970;BME280;50156;37.772;-122.432;2022-12-07T00:21:48;100995.71;;;13.39;100.00
63970;BME280;50156;37.772;-122.432;2022-12-07T00:24:17;100992.42;;;13.11;100.00
63970;BME280;50156;37.772;-122.432;2022-12-07T00:26:46;101000.25;;;13.00;100.00
63970;BME280;50156;37.772;-122.432;2022-12-07T00:29:19;100997.56;;;12.83;100.00
63970;BME280;50156;37.772;-122.432;2022-12-07T00:31:48;100996.32;;;12.76;100.00
63970;BME280;50156;37.772;-122.432;2022-12-07T00:34:20;100990.80;;;12.74;100.00
63970;BME280;50156;37.772;-122.432;2022-12-07T00:36:49;100995.89;;;12.63;100.00
63970;BME280;50156;37.772;-122.432;2022-12-07T00:39:18;100992.47;;;12.59;100.00
63970;BME280;50156;37.772;-122.432;2022-12-07T00:41:47;100993.47;;;12.54;100.00
63970;BME280;50156;37.772;-122.432;2022-12-07T00:44:16;100991.42;;;12.53;100.00
63970;BME280;50156;37.772;-122.432;2022-12-07T00:46:45;100994.04;;;12.39;100.00
63970;BME280;50156;37.772;-122.432;2022-12-07T00:49:14;100993.32;;;12.33;100.00
63970;BME280;50156;37.772;-122.432;2022-12-07T00:51:43;100994.66;;;12.26;100.00
63970;BME280;50156;37.772;-122.432;2022-12-07T00:54:12;100993.68;;;12.21;100.00
63970;BME280;50156;37.772;-122.432;2022-12-07T00:56:41;100991.92;;;12.23;100.00
63970;BME280;50156;37.772;-122.432;2022-12-07T00:59:13;100992.11;;;12.17;100.00
63970;BME280;50156;37.772;-122.432;2022-12-07T01:01:43;100994.85;;;12.09;100.00
63970;BME280;50156;37.772;-122.432;2022-12-07T01:04:12;100993.86;;;12.11;100.00
63970;BME280;50156;37.772;-122.432;2022-12-07T01:06:40;100991.97;;;12.12;100.00
63970;BME280;50156;37.772;-122.432;2022-12-07T01:09:09;100996.13;;;12.04;100.00
63970;BME280;50156;37.772;-122.432;2022-12-07T01:11:39;100997.11;;;12.04;100.00
63970;BME280;50156;37.772;-122.432;2022-12-07T01:14:09;100995.86;;;11.96;100.00
63970;BME280;50156;37.772;-122.432;2022-12-07T01:16:39;100996.10;;;11.96;100.00
63970;BME280;50156;37.772;-122.432;2022-12-07T01:19:07;100996.58;;;11.86;100.00
63970;BME280;50156;37.772;-122.432;2022-12-07T01:21:36;100996.63;;;11.95;100.00
63970;BME280;50156;37.772;-122.432;2022-12-07T01:24:09;101003.36;;;11.85;100.00
63970;BME280;50156;37.772;-122.432;2022-12-07T01:26:39;100999.89;;;11.81;100.00
63970;BME280;50156;37.772;-122.432;2022-12-07T01:29:08;100998.53;;;11.82;100.00
63970;BME280;50156;37.772;-122.432;2022-12-07T01:31:36;100996.85;;;11.78;100.00
63970;BME280;50156;37.772;-122.432;2022-12-07T01:34:04;100992.71;;;11.80;100.00
63970;BME280;50156;37.772;-122.432;2022-12-07T01:36:35;100990.14;;;11.69;100.00
63970;BME280;50156;37.772;-122.432;2022-12-07T01:39:06;100985.89;;;11.70;100.00
63970;BME280;50156;37.772;-122.432;2022-12-07T01:41:37;100986.41;;;11.66;100.00
63970;BME280;50156;37.772;-122.432;2022-12-07T01:44:11;100983.36;;;11.64;100.00
63970;BME280;50156;37.772;-122.432;2022-12-07T01:46:42;100983.62;;;11.53;100.00
63970;BME280;50156;37.772;-122.432;2022-12-07T01:49:16;100983.60;;;11.54;100.00
63970;BME280;50156;37.772;-122.432;2022-12-07T01:51:47;100984.90;;;11.51;100.00
63970;BME280;50156;37.772;-122.432;2022-12-07T01:54:18;100985.77;;;11.41;100.00
63970;BME280;50156;37.772;-122.432;2022-12-07T01:56:51;100985.02;;;11.40;100.00
63970;BME280;50156;37.772;-122.432;2022-12-07T01:59:23;100983.37;;;11.35;100.00
63970;BME280;50156;37.772;-122.432;2022-12-07T02:01:53;100981.41;;;11.32;100.00
63970;BME280;50156;37.772;-122.432;2022-12-07T02:04:23;100979.78;;;11.39;100.00
63970;BME280;50156;37.772;-122.432;2022-12-07T02:06:52;100980.80;;;11.34;100.00
63970;BME280;50156;37.772;-122.432;2022-12-07T02:09:22;100984.34;;;11.38;100.00
63970;BME280;50156;37.772;-122.432;2022-12-07T02:11:51;100989.50;;;11.33;100.00
63970;BME280;50156;37.772;-122.432;2022-12-07T02:14:21;100991.48;;;11.29;100.00
63970;BME280;50156;37.772;-122.432;2022-12-07T02:17:01;100991.80;;;11.25;100.00
63970;BME280;50156;37.772;-122.432;2022-12-07T02:20:06;100996.96;;;11.22;100.00
63970;BME280;50156;37.772;-122.432;2022-12-07T02:23:07;100996.89;;;11.13;100.00
63970;BME280;50156;37.772;-122.432;2022-12-07T02:25:59;100997.99;;;11.09;100.00
63970;BME280;50156;37.772;-122.432;2022-12-07T02:28:33;101003.45;;;11.00;100.00
63970;BME280;50156;37.772;-122.432;2022-12-07T02:31:08;101006.58;;;10.91;100.00
63970;BME280;50156;37.772;-122.432;2022-12-07T02:33:43;101008.72;;;10.97;100.00
63970;BME280;50156;37.772;-122.432;2022-12-07T02:36:20;101008.49;;;10.95;100.00
63970;BME280;50156;37.772;-122.432;2022-12-07T02:38:54;101009.63;;;10.96;100.00
63970;BME280;50156;37.772;-122.432;2022-12-07T02:41:27;101008.62;;;10.93;100.00
63970;BME280;50156;37.772;-122.432;2022-12-07T02:44:01;101005.48;;;10.91;100.00
63970;BME280;50156;37.772;-122.432;2022-12-07T02:46:33;101004.05;;;10.89;100.00
63970;BME280;50156;37.772;-122.432;2022-12-07T02:49:04;101003.40;;;10.85;100.00
63970;BME280;50156;37.772;-122.432;2022-12-07T02:51:38;101003.51;;;10.86;100.00
63970;BME280;50156;37.772;-122.432;2022-12-07T02:54:13;101002.14;;;10.87;100.00
63970;BME280;50156;37.772;-122.432;2022-12-07T02:56:48;101005.33;;;10.76;100.00
63970;BME280;50156;37.772;-122.432;2022-12-07T02:59:25;101005.67;;;10.66;100.00
63970;BME280;50156;37.772;-122.432;2022-12-07T03:02:05;101007.18;;;10.50;100.00
63970;BME280;50156;37.772;-122.432;2022-12-07T03:04:45;101007.66;;;10.55;100.00
63970;BME280;50156;37.772;-122.432;2022-12-07T03:07:24;101011.25;;;10.56;100.00
63970;BME280;50156;37.772;-122.432;2022-12-07T03:10:01;101016.65;;;10.51;100.00
63970;BME280;50156;37.772;-122.432;2022-12-07T03:12:35;101018.77;;;10.55;100.00
63970;BME280;50156;37.772;-122.432;2022-12-07T03:15:10;101019.32;;;10.61;100.00
63970;BME280;50156;37.772;-122.432;2022-12-07T03:17:42;101021.50;;;10.63;100.00
63970;BME280;50156;37.772;-122.432;2022-12-07T03:20:15;101024.38;;;10.61;100.00
63970;BME280;50156;37.772;-122.432;2022-12-07T03:22:48;101022.99;;;10.63;100.00
63970;BME280;50156;37.772;-122.432;2022-12-07T03:25:18;101022.54;;;10.60;100.00
63970;BME280;50156;37.772;-122.432;2022-12-07T03:27:52;101023.78;;;10.59;100.00
63970;BME280;50156;37.772;-122.432;2022-12-07T03:30:24;101023.01;;;10.56;100.00
63970;BME280;50156;37.772;-122.432;2022-12-07T03:33:00;101022.33;;;10.55;100.00
63970;BME280;50156;37.772;-122.432;2022-12-07T03:35:34;101023.72;;;10.52;100.00
63970;BME280;50156;37.772;-122.432;2022-12-07T03:38:11;101025.07;;;10.49;100.00
63970;BME280;50156;37.772;-122.432;2022-12-07T03:40:47;101027.92;;;10.42;100.00
63970;BME280;50156;37.772;-122.432;2022-12-07T03:43:18;101030.88;;;10.44;100.00
63970;BME280;50156;37.772;-122.432;2022-12-07T03:45:55;101033.07;;;10.43;100.00
63970;BME280;50156;37.772;-122.432;2022-12-07T03:48:31;101034.68;;;10.42;100.00
63970;BME280;50156;37.772;-122.432;2022-12-07T03:51:07;101038.49;;;10.44;100.00
63970;BME280;50156;37.772;-122.432;2022-12-07T03:53:44;101038.15;;;10.42;100.00
63970;BME280;50156;37.772;-122.432;2022-12-07T03:58:28;101040.06;;;10.37;100.00
63970;BME280;50156;37.772;-122.432;2022-12-07T04:05:56;101041.37;;;10.47;100.00
63970;BME280;50156;37.772;-122.432;2022-12-07T04:08:26;101037.52;;;10.54;100.00
63970;BME280;50156;37.772;-122.432;2022-12-07T04:10:54;101039.20;;;10.62;100.00
63970;BME280;50156;37.772;-122.432;2022-12-07T04:13:23;101037.19;;;10.64;100.00
63970;BME280;50156;37.772;-122.432;2022-12-07T04:15:52;101041.96;;;10.62;100.00
63970;BME280;50156;37.772;-122.432;2022-12-07T04:18:22;101043.46;;;10.54;100.00
63970;BME280;50156;37.772;-122.432;2022-12-07T04:20:50;101045.52;;;10.48;100.00
63970;BME280;50156;37.772;-122.432;2022-12-07T04:23:19;101048.17;;;10.39;100.00
63970;BME280;50156;37.772;-122.432;2022-12-07T04:25:49;101048.05;;;10.34;100.00
63970;BME280;50156;37.772;-122.432;2022-12-07T04:28:17;101053.25;;;10.26;100.00
63970;BME280;50156;37.772;-122.432;2022-12-07T04:30:46;101055.55;;;10.14;100.00
63970;BME280;50156;37.772;-122.432;2022-12-07T04:33:15;101057.67;;;10.13;100.00
63970;BME280;50156;37.772;-122.432;2022-12-07T04:35:44;101061.60;;;10.03;100.00
63970;BME280;50156;37.772;-122.432;2022-12-07T04:38:12;101061.62;;;10.01;100.00
63970;BME280;50156;37.772;-122.432;2022-12-07T04:40:42;101059.58;;;10.00;100.00
63970;BME280;50156;37.772;-122.432;2022-12-07T04:43:10;101059.34;;;10.02;100.00
63970;BME280;50156;37.772;-122.432;2022-12-07T04:45:39;101058.97;;;10.02;100.00
63970;BME280;50156;37.772;-122.432;2022-12-07T04:48:07;101063.09;;;9.99;100.00
63970;BME280;50156;37.772;-122.432;2022-12-07T04:50:36;101063.68;;;10.02;100.00
63970;BME280;50156;37.772;-122.432;2022-12-07T04:53:05;101068.01;;;9.97;100.00
63970;BME280;50156;37.772;-122.432;2022-12-07T04:55:34;101070.13;;;10.03;100.00
63970;BME280;50156;37.772;-122.432;2022-12-07T04:58:03;101074.48;;;10.06;100.00
63970;BME280;50156;37.772;-122.432;2022-12-07T05:00:31;101076.14;;;10.02;100.00
63970;BME280;50156;37.772;-122.432;2022-12-07T05:03:00;101075.64;;;9.92;100.00
63970;BME280;50156;37.772;-122.432;2022-12-07T05:05:29;101073.62;;;9.94;100.00
63970;BME280;50156;37.772;-122.432;2022-12-07T05:07:58;101071.61;;;9.93;100.00
63970;BME280;50156;37.772;-122.432;2022-12-07T05:10:27;101072.72;;;9.91;100.00
63970;BME280;50156;37.772;-122.432;2022-12-07T05:12:56;101073.56;;;9.86;100.00
63970;BME280;50156;37.772;-122.432;2022-12-07T05:15:24;101075.34;;;9.85;100.00
63970;BME280;50156;37.772;-122.432;2022-12-07T05:17:53;101075.69;;;9.86;100.00
63970;BME280;50156;37.772;-122.432;2022-12-07T05:20:22;101074.36;;;9.86;100.00
63970;BME280;50156;37.772;-122.432;2022-12-07T05:22:51;101076.64;;;9.75;100.00
63970;BME280;50156;37.772;-122.432;2022-12-07T05:25:19;101076.23;;;9.78;100.00
63970;BME280;50156;37.772;-122.432;2022-12-07T05:27:48;101079.47;;;9.72;100.00
63970;BME280;50156;37.772;-122.432;2022-12-07T05:30:17;101078.92;;;9.75;100.00
63970;BME280;50156;37.772;-122.432;2022-12-07T05:32:46;101079.21;;;9.70;100.00
63970;BME280;50156;37.772;-122.432;2022-12-07T05:35:15;101077.45;;;9.71;100.00
63970;BME280;50156;37.772;-122.432;2022-12-07T05:37:44;101077.36;;;9.71;100.00
63970;BME280;50156;37.772;-122.432;2022-12-07T05:40:15;101078.00;;;9.61;100.00
63970;BME280;50156;37.772;-122.432;2022-12-07T05:42:44;101077.65;;;9.58;100.00
63970;BME280;50156;37.772;-122.432;2022-12-07T05:45:12;101074.82;;;9.63;100.00
63970;BME280;50156;37.772;-122.432;2022-12-07T05:47:41;101075.75;;;9.65;100.00
63970;BME280;50156;37.772;-122.432;2022-12-07T05:50:09;101075.14;;;9.68;100.00
63970;BME280;50156;37.772;-122.432;2022-12-07T05:52:38;101077.41;;;9.72;100.00
63970;BME280;50156;37.772;-122.432;2022-12-07T05:55:07;101079.97;;;9.62;100.00
63970;BME280;50156;37.772;-122.432;2022-12-07T05:57:36;101078.95;;;9.64;100.00
63970;BME280;50156;37.772;-122.432;2022-12-07T06:00:07;101078.32;;;9.60;100.00
63970;BME280;50156;37.772;-122.432;2022-12-07T06:02:36;101077.07;;;9.49;100.00
63970;BME280;50156;37.772;-122.432;2022-12-07T06:05:06;101074.43;;;9.48;100.00
63970;BME280;50156;37.772;-122.432;2022-12-07T06:07:35;101070.95;;;9.56;100.00
63970;BME280;50156;37.772;-122.432;2022-12-07T06:10:04;101074.09;;;9.53;100.00
63970;BME280;50156;37.772;-122.432;2022-12-07T06:12:33;101078.58;;;9.41;100.00
63970;BME280;50156;37.772;-122.432;2022-12-07T06:15:02;101082.66;;;9.34;100.00
63970;BME280;50156;37.772;-122.432;2022-12-07T06:17:31;101085.07;;;9.32;100.00
63970;BME280;50156;37.772;-122.432;2022-12-07T06:20:00;101084.72;;;9.30;100.00
63970;BME280;50156;37.772;-122.432;2022-12-07T06:22:29;101085.75;;;9.29;100.00
63970;BME280;50156;37.772;-122.432;2022-12-07T06:24:57;101086.00;;;9.26;100.00
63970;BME280;50156;37.772;-122.432;2022-12-07T06:27:26;101088.74;;;9.25;100.00
63970;BME280;50156;37.772;-122.432;2022-12-07T06:29:55;101085.49;;;9.24;100.00
63970;BME280;50156;37.772;-122.432;2022-12-07T06:32:24;101083.44;;;9.27;100.00
63970;BME280;50156;37.772;-122.432;2022-12-07T06:34:52;101080.28;;;9.25;100.00
63970;BME280;50156;37.772;-122.432;2022-12-07T06:37:21;101081.95;;;9.21;100.00
63970;BME280;50156;37.772;-122.432;2022-12-07T06:39:49;101082.21;;;9.18;100.00
63970;BME280;50156;37.772;-122.432;2022-12-07T06:42:18;101083.97;;;9.17;100.00
63970;BME280;50156;37.772;-122.432;2022-12-07T06:44:46;101085.40;;;9.17;100.00
63970;BME280;50156;37.772;-122.432;2022-12-07T06:47:15;101087.80;;;9.11;100.00
63970;BME280;50156;37.772;-122.432;2022-12-07T06:49:43;101089.72;;;9.14;100.00
63970;BME280;50156;37.772;-122.432;2022-12-07T06:52:12;101091.33;;;9.10;100.00
63970;BME280;50156;37.772;-122.432;2022-12-07T06:54:41;101092.04;;;9.11;100.00
63970;BME280;50156;37.772;-122.432;2022-12-07T06:57:10;101096.11;;;9.00;100.00
63970;BME280;50156;37.772;-122.432;2022-12-07T06:59:39;101096.95;;;9.11;100.00
63970;BME280;50156;37.772;-122.432;2022-12-07T07:02:09;101097.33;;;9.07;100.00
63970;BME280;50156;37.772;-122.432;2022-12-07T07:04:38;101098.34;;;8.94;100.00
63970;BME280;50156;37.772;-122.432;2022-12-07T07:07:06;101103.38;;;8.87;100.00
63970;BME280;50156;37.772;-122.432;2022-12-07T07:09:35;101109.42;;;8.89;100.00
63970;BME280;50156;37.772;-122.432;2022-12-07T07:12:04;101109.60;;;8.89;100.00
63970;BME280;50156;37.772;-122.432;2022-12-07T07:14:33;101107.69;;;8.95;100.00
63970;BME280;50156;37.772;-122.432;2022-12-07T07:17:02;101107.38;;;8.94;100.00
63970;BME280;50156;37.772;-122.432;2022-12-07T07:19:30;101107.68;;;8.86;100.00
63970;BME280;50156;37.772;-122.432;2022-12-07T07:22:00;101106.50;;;8.90;100.00
63970;BME280;50156;37.772;-122.432;2022-12-07T07:24:29;101106.56;;;8.95;100.00
63970;BME280;50156;37.772;-122.432;2022-12-07T07:26:58;101103.19;;;8.90;100.00
63970;BME280;50156;37.772;-122.432;2022-12-07T07:29:26;101107.92;;;8.73;100.00
63970;BME280;50156;37.772;-122.432;2022-12-07T07:31:55;101111.36;;;8.76;100.00
63970;BME280;50156;37.772;-122.432;2022-12-07T07:34:23;101114.37;;;8.70;100.00
63970;BME280;50156;37.772;-122.432;2022-12-07T07:36:51;101117.87;;;8.69;100.00
63970;BME280;50156;37.772;-122.432;2022-12-07T07:39:20;101121.48;;;8.64;100.00
63970;BME280;50156;37.772;-122.432;2022-12-07T07:41:49;101124.33;;;8.60;100.00
63970;BME280;50156;37.772;-122.432;2022-12-07T07:44:18;101126.74;;;8.56;100.00
63970;BME280;50156;37.772;-122.432;2022-12-07T07:46:46;101130.76;;;8.63;100.00
63970;BME280;50156;37.772;-122.432;2022-12-07T07:49:15;101130.57;;;8.67;100.00
63970;BME280;50156;37.772;-122.432;2022-12-07T07:51:43;101130.45;;;8.60;100.00
63970;BME280;50156;37.772;-122.432;2022-12-07T07:54:11;101129.75;;;8.52;100.00
63970;BME280;50156;37.772;-122.432;2022-12-07T07:56:40;101127.72;;;8.46;100.00
63970;BME280;50156;37.772;-122.432;2022-12-07T07:59:08;101129.67;;;8.43;100.00
63970;BME280;50156;37.772;-122.432;2022-12-07T08:01:37;101136.06;;;8.33;100.00
63970;BME280;50156;37.772;-122.432;2022-12-07T08:04:06;101137.81;;;8.25;100.00
63970;BME280;50156;37.772;-122.432;2022-12-07T08:06:35;101139.42;;;8.25;100.00
63970;BME280;50156;37.772;-122.432;2022-12-07T08:09:03;101138.03;;;8.20;100.00
63970;BME280;50156;37.772;-122.432;2022-12-07T08:11:33;101139.91;;;8.11;100.00
63970;BME280;50156;37.772;-122.432;2022-12-07T08:14:02;101134.88;;;8.11;100.00
63970;BME280;50156;37.772;-122.432;2022-12-07T08:16:31;101134.07;;;8.01;100.00
63970;BME280;50156;37.772;-122.432;2022-12-07T08:19:00;101133.50;;;7.98;100.00
63970;BME280;50156;37.772;-122.432;2022-12-07T08:21:29;101131.11;;;8.00;100.00
63970;BME280;50156;37.772;-122.432;2022-12-07T08:23:58;101131.06;;;7.95;100.00
63970;BME280;50156;37.772;-122.432;2022-12-07T08:26:27;101129.59;;;7.98;100.00
63970;BME280;50156;37.772;-122.432;2022-12-07T08:28:55;101126.75;;;8.02;100.00
63970;BME280;50156;37.772;-122.432;2022-12-07T08:31:24;101125.54;;;7.87;100.00
63970;BME280;50156;37.772;-122.432;2022-12-07T08:33:52;101126.18;;;7.86;100.00
63970;BME280;50156;37.772;-122.432;2022-12-07T08:36:21;101125.02;;;7.82;100.00
63970;BME280;50156;37.772;-122.432;2022-12-07T08:38:51;101127.40;;;7.81;100.00
63970;BME280;50156;37.772;-122.432;2022-12-07T08:41:19;101126.07;;;7.86;100.00
63970;BME280;50156;37.772;-122.432;2022-12-07T08:43:48;101125.91;;;7.93;100.00
63970;BME280;50156;37.772;-122.432;2022-12-07T08:46:21;101122.92;;;8.05;100.00
63970;BME280;50156;37.772;-122.432;2022-12-07T08:48:54;101122.25;;;8.11;100.00
63970;BME280;50156;37.772;-122.432;2022-12-07T08:51:24;101120.78;;;7.96;100.00
63970;BME280;50156;37.772;-122.432;2022-12-07T08:53:54;101122.26;;;8.01;100.00
63970;BME280;50156;37.772;-122.432;2022-12-07T08:56:25;101121.54;;;8.01;100.00
63970;BME280;50156;37.772;-122.432;2022-12-07T08:58:55;101124.45;;;7.81;100.00
63970;BME280;50156;37.772;-122.432;2022-12-07T09:01:23;101122.86;;;7.83;100.00
63970;BME280;50156;37.772;-122.432;2022-12-07T09:03:52;101124.92;;;7.85;100.00
63970;BME280;50156;37.772;-122.432;2022-12-07T09:06:21;101126.31;;;7.84;100.00
63970;BME280;50156;37.772;-122.432;2022-12-07T09:08:52;101126.99;;;7.84;100.00
63970;BME280;50156;37.772;-122.432;2022-12-07T09:11:23;101128.71;;;7.66;100.00
63970;BME280;50156;37.772;-122.432;2022-12-07T09:13:52;101130.10;;;7.63;100.00
63970;BME280;50156;37.772;-122.432;2022-12-07T09:16:20;101133.32;;;7.68;100.00
63970;BME280;50156;37.772;-122.432;2022-12-07T09:18:49;101132.42;;;7.60;100.00
63970;BME280;50156;37.772;-122.432;2022-12-07T09:21:17;101132.44;;;7.49;100.00
63970;BME280;50156;37.772;-122.432;2022-12-07T09:23:46;101127.86;;;7.53;100.00
63970;BME280;50156;37.772;-122.432;2022-12-07T09:26:14;101124.62;;;7.54;100.00
63970;BME280;50156;37.772;-122.432;2022-12-07T09:28:42;101123.21;;;7.49;100.00
63970;BME280;50156;37.772;-122.432;2022-12-07T09:31:11;101123.30;;;7.70;100.00
63970;BME280;50156;37.772;-122.432;2022-12-07T09:33:40;101126.65;;;7.65;100.00
63970;BME280;50156;37.772;-122.432;2022-12-07T09:36:08;101130.42;;;7.62;100.00
63970;BME280;50156;37.772;-122.432;2022-12-07T09:38:37;101127.30;;;7.52;100.00
63970;BME280;50156;37.772;-122.432;2022-12-07T09:41:06;101125.24;;;7.63;100.00
63970;BME280;50156;37.772;-122.432;2022-12-07T09:43:36;101130.39;;;7.69;100.00
63970;BME280;50156;37.772;-122.432;2022-12-07T09:46:08;101130.18;;;7.70;100.00
63970;BME280;50156;37.772;-122.432;2022-12-07T09:48:39;101128.10;;;7.63;100.00
63970;BME280;50156;37.772;-122.432;2022-12-07T09:51:16;101129.54;;;7.63;100.00
63970;BME280;50156;37.772;-122.432;2022-12-07T09:53:46;101129.09;;;7.65;100.00
63970;BME280;50156;37.772;-122.432;2022-12-07T09:56:17;101133.33;;;7.73;100.00
63970;BME280;50156;37.772;-122.432;2022-12-07T09:58:46;101132.61;;;7.75;100.00
63970;BME280;50156;37.772;-122.432;2022-12-07T10:01:18;101130.87;;;7.74;100.00
63970;BME280;50156;37.772;-122.432;2022-12-07T10:03:51;101135.10;;;7.75;100.00
63970;BME280;50156;37.772;-122.432;2022-12-07T10:06:21;101136.75;;;7.69;100.00
63970;BME280;50156;37.772;-122.432;2022-12-07T10:08:49;101136.82;;;7.81;100.00
63970;BME280;50156;37.772;-122.432;2022-12-07T10:11:18;101136.07;;;7.87;100.00
63970;BME280;50156;37.772;-122.432;2022-12-07T10:13:48;101138.61;;;7.77;100.00
63970;BME280;50156;37.772;-122.432;2022-12-07T10:16:50;101141.04;;;7.73;100.00
63970;BME280;50156;37.772;-122.432;2022-12-07T10:19:22;101142.91;;;7.78;100.00
63970;BME280;50156;37.772;-122.432;2022-12-07T10:22:12;101141.89;;;7.77;100.00
63970;BME280;50156;37.772;-122.432;2022-12-07T10:24:42;101143.60;;;7.82;100.00
63970;BME280;50156;37.772;-122.432;2022-12-07T10:27:20;101144.47;;;7.89;100.00
63970;BME280;50156;37.772;-122.432;2022-12-07T10:29:51;101142.69;;;7.83;100.00
63970;BME280;50156;37.772;-122.432;2022-12-07T10:32:32;101139.85;;;7.93;100.00
63970;BME280;50156;37.772;-122.432;2022-12-07T10:35:22;101139.48;;;7.96;100.00
63970;BME280;50156;37.772;-122.432;2022-12-07T10:37:52;101138.37;;;7.92;100.00
63970;BME280;50156;37.772;-122.432;2022-12-07T10:40:32;101135.88;;;8.01;100.00
63970;BME280;50156;37.772;-122.432;2022-12-07T10:43:05;101136.66;;;7.88;100.00
63970;BME280;50156;37.772;-122.432;2022-12-07T10:45:35;101140.72;;;7.66;100.00
63970;BME280;50156;37.772;-122.432;2022-12-07T10:48:19;101145.41;;;7.77;100.00
63970;BME280;50156;37.772;-122.432;2022-12-07T10:50:58;101143.38;;;7.79;100.00
63970;BME280;50156;37.772;-122.432;2022-12-07T10:53:41;101145.16;;;7.70;100.00
63970;BME280;50156;37.772;-122.432;2022-12-07T10:56:35;101143.75;;;7.69;100.00
63970;BME280;50156;37.772;-122.432;2022-12-07T10:59:23;101145.96;;;7.78;100.00
63970;BME280;50156;37.772;-122.432;2022-12-07T11:02:06;101147.93;;;7.75;100.00
63970;BME280;50156;37.772;-122.432;2022-12-07T11:04:54;101151.55;;;7.60;100.00
63970;BME280;50156;37.772;-122.432;2022-12-07T11:07:35;101150.41;;;7.64;100.00
63970;BME280;50156;37.772;-122.432;2022-12-07T11:10:15;101149.24;;;7.45;100.00
63970;BME280;50156;37.772;-122.432;2022-12-07T11:12:59;101151.96;;;7.61;100.00
63970;BME280;50156;37.772;-122.432;2022-12-07T11:15:36;101148.03;;;7.66;100.00
63970;BME280;50156;37.772;-122.432;2022-12-07T11:18:14;101146.79;;;7.71;100.00
63970;BME280;50156;37.772;-122.432;2022-12-07T11:20:53;101145.90;;;7.79;100.00
63970;BME280;50156;37.772;-122.432;2022-12-07T11:23:37;101143.03;;;7.61;100.00
63970;BME280;50156;37.772;-122.432;2022-12-07T11:26:18;101140.15;;;7.49;100.00
63970;BME280;50156;37.772;-122.432;2022-12-07T11:29:04;101136.29;;;7.58;100.00
63970;BME280;50156;37.772;-122.432;2022-12-07T11:31:42;101136.05;;;7.57;100.00
63970;BME280;50156;37.772;-122.432;2022-12-07T11:34:24;101140.44;;;7.53;100.00
63970;BME280;50156;37.772;-122.432;2022-12-07T11:36:55;101140.88;;;7.61;100.00
63970;BME280;50156;37.772;-122.432;2022-12-07T11:39:30;101144.69;;;7.55;100.00
63970;BME280;50156;37.772;-122.432;2022-12-07T11:42:06;101143.58;;;7.56;100.00
63970;BME280;50156;37.772;-122.432;2022-12-07T11:44:45;101143.88;;;7.55;100.00
63970;BME280;50156;37.772;-122.432;2022-12-07T11:47:21;101142.15;;;7.53;100.00
63970;BME280;50156;37.772;-122.432;2022-12-07T11:49:56;101140.17;;;7.51;100.00
63970;BME280;50156;37.772;-122.432;2022-12-07T11:52:38;101137.45;;;7.48;100.00
63970;BME280;50156;37.772;-122.432;2022-12-07T11:55:21;101135.95;;;7.51;100.00
63970;BME280;50156;37.772;-122.432;2022-12-07T11:57:56;101136.86;;;7.43;100.00
63970;BME280;50156;37.772;-122.432;2022-12-07T12:00:27;101136.24;;;7.39;100.00
63970;BME280;50156;37.772;-122.432;2022-12-07T12:03:01;101138.36;;;7.38;100.00
63970;BME280;50156;37.772;-122.432;2022-12-07T12:05:31;101138.89;;;7.33;100.00
63970;BME280;50156;37.772;-122.432;2022-12-07T12:08:10;101140.55;;;7.30;100.00
63970;BME280;50156;37.772;-122.432;2022-12-07T12:10:54;101144.86;;;7.25;100.00
63970;BME280;50156;37.772;-122.432;2022-12-07T12:14:02;101148.72;;;7.16;100.00
63970;BME280;50156;37.772;-122.432;2022-12-07T12:17:01;101153.38;;;7.28;100.00
63970;BME280;50156;37.772;-122.432;2022-12-07T12:19:40;101150.57;;;7.21;100.00
63970;BME280;50156;37.772;-122.432;2022-12-07T12:22:15;101150.29;;;7.12;100.00
63970;BME280;50156;37.772;-122.432;2022-12-07T12:24:48;101150.04;;;7.12;100.00
63970;BME280;50156;37.772;-122.432;2022-12-07T12:27:23;101148.78;;;7.22;100.00
63970;BME280;50156;37.772;-122.432;2022-12-07T12:29:55;101147.07;;;7.20;100.00
63970;BME280;50156;37.772;-122.432;2022-12-07T12:32:35;101147.88;;;7.17;100.00
63970;BME280;50156;37.772;-122.432;2022-12-07T12:35:29;101152.00;;;7.25;100.00
63970;BME280;50156;37.772;-122.432;2022-12-07T12:38:27;101151.99;;;7.24;100.00
63970;BME280;50156;37.772;-122.432;2022-12-07T12:40:57;101158.41;;;7.17;100.00
63970;BME280;50156;37.772;-122.432;2022-12-07T12:43:45;101159.86;;;7.38;100.00
63970;BME280;50156;37.772;-122.432;2022-12-07T12:46:51;101158.89;;;7.31;100.00
63970;BME280;50156;37.772;-122.432;2022-12-07T12:49:39;101159.99;;;7.29;100.00
63970;BME280;50156;37.772;-122.432;2022-12-07T12:53:19;101165.55;;;7.28;100.00